Time;durP1;ratioP1;P1;durP2;ratioP2;P2;SDS_P1;SDS_P2;PMS_P1;PMS_P2;Temp;Humidity;BMP_temperature;BMP_pressure;BME280_temperature;BME280_humidity;BME280_pressure;Samples;Min_cycle;Max_cycle;Signal;HPM_P1;HPM_P2
2021/11/06 00:00:08;;;;;;;9.57;2.63;;;;;;;;;;5065571;28;20032;-82
2021/11/06 00:02:34;;;;;;;1.48;1.25;;;;;;;;;;5067364;28;20377;-82
2021/11/06 00:05:00;;;;;;;4.70;1.70;;;;;;;;;;5049173;28;20033;-82
2021/11/06 00:07:26;;;;;;;1.70;0.57;;;;;;;;;;5067059;28;20048;-82
2021/11/06 00:09:52;;;;;;;1.65;1.25;;;;;;;;;;5068709;28;20712;-82
2021/11/06 00:12:19;;;;;;;1.25;1.05;;;;;;;;;;5047598;28;20457;-82
2021/11/06 00:14:45;;;;;;;1.73;1.63;;;;;;;;;;5063288;28;20055;-82
2021/11/06 00:17:11;;;;;;;0.63;0.63;;;;;;;;;;5045472;28;20287;-82
2021/11/06 00:19:37;;;;;;;4.93;1.13;;;;;;;;;;5046400;28;20503;-82
2021/11/06 00:22:04;;;;;;;0.95;0.95;;;;;;;;;;5064738;28;20028;-82
2021/11/06 00:24:30;;;;;;;1.10;1.10;;;;;;;;;;5063493;28;20064;-81
2021/11/06 00:26:56;;;;;;;0.10;0.10;;;;;;;;;;5062234;28;20064;-81
2021/11/06 00:29:22;;;;;;;0.30;0.30;;;;;;;;;;5044876;28;20024;-81
2021/11/06 00:31:49;;;;;;;2.57;2.37;;;;;;;;;;5044142;28;20040;-81
2021/11/06 00:34:15;;;;;;;0.30;0.30;;;;;;;;;;5062448;28;20154;-80
2021/11/06 00:36:42;;;;;;;0.32;0.32;;;;;;;;;;5063239;28;20103;-81
2021/11/06 00:39:08;;;;;;;0.95;0.95;;;;;;;;;;5061991;28;20412;-81
2021/11/06 00:41:34;;;;;;;0.30;0.30;;;;;;;;;;5044647;28;20526;-81
2021/11/06 00:44:01;;;;;;;0.20;0.20;;;;;;;;;;5063625;28;20038;-82
2021/11/06 00:46:27;;;;;;;2.75;1.02;;;;;;;;;;5045290;28;20059;-81
2021/11/06 00:48:53;;;;;;;0.00;0.00;;;;;;;;;;5046641;28;20058;-83
2021/11/06 00:51:19;;;;;;;0.30;0.30;;;;;;;;;;5045431;28;20186;-84
2021/11/06 00:53:46;;;;;;;0.10;0.10;;;;;;;;;;5045068;28;20033;-81
2021/11/06 00:56:12;;;;;;;0.05;0.05;;;;;;;;;;5061398;28;20028;-81
2021/11/06 00:58:38;;;;;;;0.10;0.10;;;;;;;;;;5061817;28;20040;-81
2021/11/06 01:01:04;;;;;;;0.03;0.03;;;;;;;;;;5062081;28;20036;-81
2021/11/06 01:03:30;;;;;;;0.10;0.10;;;;;;;;;;5060091;28;20028;-81
2021/11/06 01:05:56;;;;;;;1.25;0.65;;;;;;;;;;5060716;28;20161;-80
2021/11/06 01:08:22;;;;;;;0.10;0.10;;;;;;;;;;5061982;28;20032;-81
2021/11/06 01:10:48;;;;;;;0.47;0.47;;;;;;;;;;5042376;28;20125;-81
2021/11/06 01:13:17;;;;;;;0.10;0.10;;;;;;;;;;5061931;28;20040;-80
2021/11/06 01:15:43;;;;;;;0.10;0.10;;;;;;;;;;5063149;28;20024;-80
2021/11/06 01:18:09;;;;;;;0.10;0.10;;;;;;;;;;5045118;28;20541;-81
2021/11/06 01:20:35;;;;;;;0.83;0.83;;;;;;;;;;5061476;28;20032;-81
2021/11/06 01:23:01;;;;;;;0.80;0.47;;;;;;;;;;5062289;28;20060;-80
2021/11/06 01:25:27;;;;;;;0.45;0.45;;;;;;;;;;5043887;28;20032;-81
2021/11/06 01:27:53;;;;;;;0.38;0.38;;;;;;;;;;5044903;28;20036;-80
2021/11/06 01:30:19;;;;;;;0.10;0.10;;;;;;;;;;5029244;28;20033;-81
2021/11/06 01:32:46;;;;;;;0.30;0.30;;;;;;;;;;5060942;28;20021;-81
2021/11/06 01:35:13;;;;;;;0.05;0.05;;;;;;;;;;5043630;28;20052;-81
2021/11/06 01:37:39;;;;;;;0.10;0.10;;;;;;;;;;5042812;28;20045;-81
2021/11/06 01:40:07;;;;;;;0.63;0.37;;;;;;;;;;5062647;28;20047;-82
2021/11/06 01:42:33;;;;;;;0.38;0.38;;;;;;;;;;5043133;28;20389;-82
2021/11/06 01:44:59;;;;;;;0.00;0.00;;;;;;;;;;5060451;28;20032;-83
2021/11/06 01:47:26;;;;;;;0.10;0.10;;;;;;;;;;5060916;28;20431;-83
2021/11/06 01:49:52;;;;;;;0.28;0.28;;;;;;;;;;5043711;28;20131;-82
2021/11/06 01:52:18;;;;;;;0.30;0.30;;;;;;;;;;5060400;28;20032;-82
2021/11/06 01:54:44;;;;;;;0.00;0.00;;;;;;;;;;5044370;28;20040;-82
2021/11/06 01:57:10;;;;;;;0.17;0.17;;;;;;;;;;5061305;28;20157;-82
2021/11/06 01:59:36;;;;;;;0.03;0.03;;;;;;;;;;5060993;28;20127;-83
2021/11/06 02:02:03;;;;;;;0.10;0.10;;;;;;;;;;5043728;28;20136;-83
2021/11/06 02:04:29;;;;;;;0.20;0.20;;;;;;;;;;5043549;28;20115;-83
2021/11/06 02:06:55;;;;;;;1.13;0.47;;;;;;;;;;5044506;28;20358;-84
2021/11/06 02:09:21;;;;;;;0.38;0.38;;;;;;;;;;5061453;28;20495;-82
2021/11/06 02:11:47;;;;;;;0.13;0.13;;;;;;;;;;5043956;28;20036;-82
2021/11/06 02:14:13;;;;;;;0.00;0.00;;;;;;;;;;5060089;28;20024;-80
2021/11/06 02:16:39;;;;;;;0.10;0.10;;;;;;;;;;5060341;28;20033;-80
2021/11/06 02:19:06;;;;;;;0.10;0.10;;;;;;;;;;5062452;28;20036;-80
2021/11/06 02:21:34;;;;;;;0.40;0.40;;;;;;;;;;5060242;28;20039;-81
2021/11/06 02:24:01;;;;;;;0.10;0.10;;;;;;;;;;5059861;28;20036;-79
2021/11/06 02:26:27;;;;;;;3.20;1.40;;;;;;;;;;5059682;28;20024;-79
2021/11/06 02:28:55;;;;;;;0.00;0.00;;;;;;;;;;5025510;28;20032;-82
2021/11/06 02:31:21;;;;;;;1.20;0.93;;;;;;;;;;5060407;28;20035;-82
2021/11/06 02:33:48;;;;;;;0.30;0.30;;;;;;;;;;5043836;28;20033;-81
2021/11/06 02:36:14;;;;;;;0.00;0.00;;;;;;;;;;5043088;28;20025;-82
2021/11/06 02:38:41;;;;;;;0.20;0.20;;;;;;;;;;5060545;28;20131;-81
2021/11/06 02:41:07;;;;;;;0.10;0.10;;;;;;;;;;5042966;28;20047;-84
2021/11/06 02:43:33;;;;;;;0.00;0.00;;;;;;;;;;5059817;28;20114;-85
2021/11/06 02:45:59;;;;;;;0.00;0.00;;;;;;;;;;5060974;28;20032;-85
2021/11/06 02:48:26;;;;;;;0.10;0.10;;;;;;;;;;5060268;28;20081;-85
2021/11/06 02:50:52;;;;;;;0.20;0.20;;;;;;;;;;5042112;28;20123;-85
2021/11/06 02:53:18;;;;;;;0.10;0.10;;;;;;;;;;5060317;28;20047;-84
2021/11/06 02:55:44;;;;;;;0.20;0.20;;;;;;;;;;5042870;28;20438;-84
2021/11/06 02:58:11;;;;;;;0.10;0.10;;;;;;;;;;5060064;28;20036;-85
2021/11/06 03:00:37;;;;;;;0.57;0.57;;;;;;;;;;5061327;28;20380;-84
2021/11/06 03:03:04;;;;;;;0.10;0.10;;;;;;;;;;5060396;28;20782;-85
2021/11/06 03:05:30;;;;;;;0.30;0.30;;;;;;;;;;5060440;28;20025;-86
2021/11/06 03:07:56;;;;;;;0.10;0.10;;;;;;;;;;5041985;28;20028;-84
2021/11/06 03:10:22;;;;;;;0.00;0.00;;;;;;;;;;5042096;28;20597;-84
2021/11/06 03:12:49;;;;;;;0.10;0.10;;;;;;;;;;5060772;28;20031;-85
2021/11/06 03:15:15;;;;;;;;;;;;;;;;;;5042872;28;20407;-85
2021/11/06 03:17:41;;;;;;;0.30;0.30;;;;;;;;;;5042194;28;19927;-85
2021/11/06 03:20:08;;;;;;;0.10;0.10;;;;;;;;;;5024808;28;20076;-84
2021/11/06 03:22:34;;;;;;;;;;;;;;;;;;5060404;28;21202;-84
2021/11/06 03:25:02;;;;;;;0.20;0.20;;;;;;;;;;5060487;28;19923;-85
2021/11/06 03:27:28;;;;;;;0.32;0.32;;;;;;;;;;5042156;28;20029;-82
2021/11/06 03:29:55;;;;;;;0.10;0.10;;;;;;;;;;5040211;28;20515;-83
2021/11/06 03:32:21;;;;;;;0.10;0.10;;;;;;;;;;5059395;28;20036;-82
2021/11/06 03:34:47;;;;;;;0.20;0.20;;;;;;;;;;5041189;28;20033;-82
2021/11/06 03:37:13;;;;;;;0.27;0.27;;;;;;;;;;5042053;28;20027;-82
2021/11/06 03:39:39;;;;;;;0.10;0.10;;;;;;;;;;5040796;28;20035;-83
2021/11/06 03:42:06;;;;;;;0.60;0.60;;;;;;;;;;5059040;28;20039;-83
2021/11/06 03:44:32;;;;;;;0.30;0.30;;;;;;;;;;5058857;28;20039;-83
2021/11/06 03:46:58;;;;;;;0.10;0.10;;;;;;;;;;5024100;28;20036;-83
2021/11/06 03:49:24;;;;;;;0.10;0.10;;;;;;;;;;5061964;28;20720;-82
2021/11/06 03:51:50;;;;;;;0.32;0.32;;;;;;;;;;5062949;28;20028;-83
2021/11/06 03:54:16;;;;;;;0.10;0.10;;;;;;;;;;5062948;28;20021;-84
2021/11/06 03:56:43;;;;;;;0.10;0.10;;;;;;;;;;5061895;28;20099;-83
2021/11/06 03:59:09;;;;;;;0.00;0.00;;;;;;;;;;5061684;28;20109;-81
2021/11/06 04:01:35;;;;;;;0.10;0.10;;;;;;;;;;5045750;28;20033;-81
2021/11/06 04:04:02;;;;;;;0.20;0.20;;;;;;;;;;5064047;28;20385;-81
2021/11/06 04:06:28;;;;;;;;;;;;;;;;;;5063467;28;20138;-80
2021/11/06 04:08:56;;;;;;;0.10;0.10;;;;;;;;;;5063048;28;19952;-80
2021/11/06 04:11:22;;;;;;;0.20;0.20;;;;;;;;;;5064824;28;20025;-81
2021/11/06 04:13:48;;;;;;;0.22;0.22;;;;;;;;;;5046301;28;20033;-82
2021/11/06 04:16:15;;;;;;;0.73;0.73;;;;;;;;;;5044806;28;20029;-84
2021/11/06 04:18:42;;;;;;;0.82;0.38;;;;;;;;;;5063918;28;20097;-82
2021/11/06 04:21:08;;;;;;;0.30;0.30;;;;;;;;;;5044347;28;20139;-82
2021/11/06 04:23:35;;;;;;;3.75;1.23;;;;;;;;;;5062386;28;20037;-82
2021/11/06 04:26:01;;;;;;;0.13;0.13;;;;;;;;;;5062070;28;20032;-82
2021/11/06 04:28:27;;;;;;;0.40;0.40;;;;;;;;;;5037075;28;20032;-81
2021/11/06 04:30:53;;;;;;;0.10;0.10;;;;;;;;;;5063918;28;20028;-81
2021/11/06 04:33:19;;;;;;;5.50;0.70;;;;;;;;;;5062319;28;20032;-83
2021/11/06 04:35:45;;;;;;;0.10;0.10;;;;;;;;;;5059850;28;20463;-82
2021/11/06 04:38:12;;;;;;;0.10;0.10;;;;;;;;;;5061266;28;20132;-81
2021/11/06 04:40:38;;;;;;;0.68;0.68;;;;;;;;;;5061901;28;20048;-82
2021/11/06 04:43:04;;;;;;;0.57;0.57;;;;;;;;;;5046162;28;20036;-84
2021/11/06 04:45:31;;;;;;;0.10;0.10;;;;;;;;;;5062651;28;20082;-82
2021/11/06 04:47:57;;;;;;;6.73;0.87;;;;;;;;;;5060475;28;20024;-81
2021/11/06 04:50:23;;;;;;;0.10;0.10;;;;;;;;;;5061263;28;20789;-81
2021/11/06 04:52:49;;;;;;;0.10;0.10;;;;;;;;;;5061970;28;20032;-82
2021/11/06 04:55:16;;;;;;;0.10;0.10;;;;;;;;;;5061675;28;20048;-81
2021/11/06 04:57:42;;;;;;;0.20;0.20;;;;;;;;;;5065048;28;20056;-82
2021/11/06 05:00:09;;;;;;;0.10;0.10;;;;;;;;;;5062119;28;20086;-82
2021/11/06 05:02:36;;;;;;;0.10;0.10;;;;;;;;;;5044246;28;20456;-83
2021/11/06 05:05:03;;;;;;;0.10;0.10;;;;;;;;;;5044145;28;20043;-83
2021/11/06 05:07:29;;;;;;;0.20;0.20;;;;;;;;;;5060233;28;20040;-82
2021/11/06 05:09:55;;;;;;;0.10;0.10;;;;;;;;;;5043947;28;20039;-82
2021/11/06 05:12:22;;;;;;;0.65;0.50;;;;;;;;;;5062853;28;20031;-84
2021/11/06 05:14:49;;;;;;;0.65;0.52;;;;;;;;;;5062876;28;20526;-84
2021/11/06 05:17:15;;;;;;;1.45;0.57;;;;;;;;;;5044362;28;20107;-83
2021/11/06 05:19:42;;;;;;;0.30;0.30;;;;;;;;;;5061889;28;20456;-82
2021/11/06 05:22:08;;;;;;;;;;;;;;;;;;5045156;28;20039;-82
2021/11/06 05:24:35;;;;;;;0.00;0.00;;;;;;;;;;5061656;28;20054;-83
2021/11/06 05:27:01;;;;;;;;;;;;;;;;;;5062620;28;20631;-83
2021/11/06 05:29:27;;;;;;;0.10;0.10;;;;;;;;;;5057310;28;19916;-81
2021/11/06 05:31:53;;;;;;;0.00;0.00;;;;;;;;;;5060124;28;20116;-82
2021/11/06 05:34:19;;;;;;;0.20;0.20;;;;;;;;;;5060706;28;20052;-82
2021/11/06 05:36:45;;;;;;;0.20;0.20;;;;;;;;;;5063244;28;20037;-83
2021/11/06 05:39:11;;;;;;;0.35;0.35;;;;;;;;;;5061062;28;20047;-83
2021/11/06 05:41:37;;;;;;;0.20;0.20;;;;;;;;;;5061387;28;20028;-82
2021/11/06 05:44:04;;;;;;;0.30;0.30;;;;;;;;;;5060617;28;20056;-83
2021/11/06 05:46:30;;;;;;;0.10;0.10;;;;;;;;;;5061504;28;20504;-82
2021/11/06 05:48:56;;;;;;;0.20;0.20;;;;;;;;;;5061639;28;20107;-82
2021/11/06 05:51:22;;;;;;;0.10;0.10;;;;;;;;;;5055712;28;20102;-83
2021/11/06 05:53:48;;;;;;;0.10;0.10;;;;;;;;;;5061154;28;20509;-85
2021/11/06 05:56:15;;;;;;;0.10;0.10;;;;;;;;;;5059438;28;20051;-84
2021/11/06 05:58:41;;;;;;;;;;;;;;;;;;5060449;28;20124;-84
2021/11/06 06:01:07;;;;;;;0.10;0.10;;;;;;;;;;5062027;28;20381;-81
2021/11/06 06:03:34;;;;;;;0.20;0.20;;;;;;;;;;5042842;28;20039;-83
2021/11/06 06:06:00;;;;;;;0.20;0.20;;;;;;;;;;5043815;28;20613;-84
2021/11/06 06:08:26;;;;;;;0.10;0.10;;;;;;;;;;5061376;28;20033;-84
2021/11/06 06:10:52;;;;;;;0.10;0.10;;;;;;;;;;5041492;28;20658;-86
2021/11/06 06:13:18;;;;;;;0.10;0.10;;;;;;;;;;5043033;28;20350;-86
2021/11/06 06:15:44;;;;;;;0.13;0.13;;;;;;;;;;5061561;28;20264;-85
2021/11/06 06:18:10;;;;;;;0.20;0.20;;;;;;;;;;5059988;28;20528;-83
2021/11/06 06:20:36;;;;;;;0.10;0.10;;;;;;;;;;5060716;28;20039;-84
2021/11/06 06:23:04;;;;;;;0.10;0.10;;;;;;;;;;5058927;28;20465;-83
2021/11/06 06:25:30;;;;;;;0.00;0.00;;;;;;;;;;5042688;28;20024;-82
2021/11/06 06:27:56;;;;;;;1.15;1.13;;;;;;;;;;5064957;28;20111;-82
2021/11/06 06:30:22;;;;;;;0.10;0.10;;;;;;;;;;5059390;28;20036;-81
2021/11/06 06:32:48;;;;;;;0.10;0.10;;;;;;;;;;5061551;28;20450;-82
2021/11/06 06:35:15;;;;;;;0.10;0.10;;;;;;;;;;5061119;28;20029;-82
2021/11/06 06:37:41;;;;;;;0.15;0.15;;;;;;;;;;5056153;28;20037;-83
2021/11/06 06:40:08;;;;;;;0.10;0.10;;;;;;;;;;5044964;28;20043;-82
2021/11/06 06:42:35;;;;;;;0.10;0.10;;;;;;;;;;5042389;28;20028;-82
2021/11/06 06:45:01;;;;;;;0.10;0.10;;;;;;;;;;5061271;28;20086;-82
2021/11/06 06:47:27;;;;;;;0.27;0.27;;;;;;;;;;5061026;28;20028;-83
2021/11/06 06:49:53;;;;;;;0.03;0.03;;;;;;;;;;5060832;28;20036;-82
2021/11/06 06:52:19;;;;;;;0.20;0.20;;;;;;;;;;5061024;28;20032;-83
2021/11/06 06:54:45;;;;;;;0.00;0.00;;;;;;;;;;5060183;28;20063;-83
2021/11/06 06:57:12;;;;;;;0.30;0.30;;;;;;;;;;5060185;28;20112;-83
2021/11/06 06:59:38;;;;;;;0.40;0.32;;;;;;;;;;5055266;28;20048;-82
2021/11/06 07:02:05;;;;;;;0.10;0.10;;;;;;;;;;5058805;28;20029;-82
2021/11/06 07:04:31;;;;;;;0.15;0.15;;;;;;;;;;5025374;28;20029;-81
2021/11/06 07:06:57;;;;;;;0.10;0.10;;;;;;;;;;5043356;28;20041;-81
2021/11/06 07:09:24;;;;;;;0.10;0.10;;;;;;;;;;5059308;28;20120;-80
2021/11/06 07:11:50;;;;;;;0.00;0.00;;;;;;;;;;5060207;28;20290;-80
2021/11/06 07:14:16;;;;;;;0.10;0.10;;;;;;;;;;5060093;28;20024;-81
2021/11/06 07:16:43;;;;;;;0.10;0.10;;;;;;;;;;5059798;28;20024;-80
2021/11/06 07:19:10;;;;;;;0.00;0.00;;;;;;;;;;5061398;28;20037;-80
2021/11/06 07:21:36;;;;;;;0.73;0.73;;;;;;;;;;5057527;28;20028;-81
2021/11/06 07:24:02;;;;;;;0.10;0.10;;;;;;;;;;5046934;28;20036;-83
2021/11/06 07:26:28;;;;;;;0.10;0.10;;;;;;;;;;5044995;28;20025;-83
2021/11/06 07:28:54;;;;;;;0.20;0.20;;;;;;;;;;5027180;28;20241;-81
2021/11/06 07:31:21;;;;;;;0.47;0.33;;;;;;;;;;5064735;28;20033;-80
2021/11/06 07:33:48;;;;;;;0.10;0.10;;;;;;;;;;5063094;28;20044;-82
2021/11/06 07:36:15;;;;;;;0.10;0.10;;;;;;;;;;5045878;28;20131;-81
2021/11/06 07:38:41;;;;;;;0.40;0.40;;;;;;;;;;5044247;28;20036;-83
2021/11/06 07:41:07;;;;;;;0.10;0.10;;;;;;;;;;5045425;28;20028;-81
2021/11/06 07:43:37;;;;;;;0.10;0.10;;;;;;;;;;5045012;28;25590;-82
2021/11/06 07:46:04;;;;;;;0.10;0.10;;;;;;;;;;5047102;28;20036;-81
2021/11/06 07:48:30;;;;;;;0.10;0.10;;;;;;;;;;5062020;28;20025;-82
2021/11/06 07:50:56;;;;;;;0.00;0.00;;;;;;;;;;5062402;28;21614;-81
2021/11/06 07:53:22;;;;;;;0.10;0.10;;;;;;;;;;5044482;28;20037;-81
2021/11/06 07:55:48;;;;;;;0.10;0.10;;;;;;;;;;5043369;28;20499;-83
2021/11/06 07:58:14;;;;;;;3.30;0.77;;;;;;;;;;5046019;28;20142;-81
2021/11/06 08:00:41;;;;;;;0.20;0.20;;;;;;;;;;5062016;28;20047;-79
2021/11/06 08:03:07;;;;;;;0.10;0.10;;;;;;;;;;5062187;28;20028;-79
2021/11/06 08:05:33;;;;;;;0.73;0.33;;;;;;;;;;5042608;28;20825;-79
2021/11/06 08:07:59;;;;;;;0.35;0.20;;;;;;;;;;5043459;28;20040;-82
2021/11/06 08:10:27;;;;;;;0.10;0.10;;;;;;;;;;5043683;28;20127;-79
2021/11/06 08:12:54;;;;;;;0.10;0.10;;;;;;;;;;5063737;28;20016;-81
2021/11/06 08:15:20;;;;;;;0.10;0.10;;;;;;;;;;5043741;28;20028;-80
2021/11/06 08:17:46;;;;;;;0.30;0.30;;;;;;;;;;5061150;28;20667;-80
2021/11/06 08:20:13;;;;;;;0.30;0.30;;;;;;;;;;5061125;28;20045;-82
2021/11/06 08:22:39;;;;;;;0.52;0.50;;;;;;;;;;5060277;28;20033;-81
2021/11/06 08:25:08;;;;;;;0.10;0.10;;;;;;;;;;5044837;28;20127;-82
2021/11/06 08:27:34;;;;;;;0.52;0.52;;;;;;;;;;5043827;28;20090;-80
2021/11/06 08:30:01;;;;;;;0.43;0.43;;;;;;;;;;5043112;28;20203;-80
2021/11/06 08:32:27;;;;;;;0.40;0.40;;;;;;;;;;5043379;28;20089;-80
2021/11/06 08:34:53;;;;;;;0.10;0.10;;;;;;;;;;5059256;28;20098;-81
2021/11/06 08:37:19;;;;;;;1.60;0.77;;;;;;;;;;5043871;28;20025;-79
2021/11/06 08:39:45;;;;;;;0.10;0.10;;;;;;;;;;5063903;28;20047;-81
2021/11/06 08:42:11;;;;;;;1.88;0.95;;;;;;;;;;5063145;28;20024;-81
2021/11/06 08:44:37;;;;;;;0.50;0.40;;;;;;;;;;5061009;28;20712;-80
2021/11/06 08:47:03;;;;;;;0.20;0.20;;;;;;;;;;5060945;28;20558;-79
2021/11/06 08:49:30;;;;;;;0.10;0.10;;;;;;;;;;5062555;28;20047;-78
2021/11/06 08:51:56;;;;;;;0.00;0.00;;;;;;;;;;5056104;28;20037;-80
2021/11/06 08:54:22;;;;;;;0.10;0.10;;;;;;;;;;5042809;28;20032;-81
2021/11/06 08:56:48;;;;;;;0.20;0.20;;;;;;;;;;5043459;28;20035;-79
2021/11/06 08:59:15;;;;;;;1.20;0.65;;;;;;;;;;5063190;28;20040;-79
2021/11/06 09:01:42;;;;;;;0.52;0.52;;;;;;;;;;5044649;28;20040;-79
2021/11/06 09:04:08;;;;;;;0.75;0.45;;;;;;;;;;5063345;28;20043;-78
2021/11/06 09:06:34;;;;;;;0.10;0.10;;;;;;;;;;5022031;28;20524;-77
2021/11/06 09:09:04;;;;;;;0.10;0.10;;;;;;;;;;5057792;28;20313;-78
2021/11/06 09:11:30;;;;;;;0.88;0.77;;;;;;;;;;5042607;28;20279;-79
2021/11/06 09:13:56;;;;;;;0.10;0.10;;;;;;;;;;5042058;28;20072;-78
2021/11/06 09:16:23;;;;;;;0.85;0.40;;;;;;;;;;5040115;28;20037;-79
2021/11/06 09:18:51;;;;;;;0.10;0.10;;;;;;;;;;5059718;28;20045;-79
2021/11/06 09:21:20;;;;;;;0.93;0.80;;;;;;;;;;5042824;28;20025;-78
2021/11/06 09:23:48;;;;;;;0.90;0.90;;;;;;;;;;5038515;28;20049;-79
2021/11/06 09:26:15;;;;;;;0.30;0.30;;;;;;;;;;5024439;28;20516;-79
2021/11/06 09:28:42;;;;;;;0.10;0.10;;;;;;;;;;5025481;28;20110;-79
2021/11/06 09:31:08;;;;;;;;;;;;;;;;;;5039363;28;20036;-79
2021/11/06 09:33:34;;;;;;;0.28;0.28;;;;;;;;;;5025804;28;19913;-79
2021/11/06 09:36:00;;;;;;;0.13;0.13;;;;;;;;;;5025637;28;20463;-79
2021/11/06 09:38:26;;;;;;;0.20;0.20;;;;;;;;;;5040633;28;20091;-79
2021/11/06 09:40:52;;;;;;;0.20;0.20;;;;;;;;;;5024294;28;20037;-79
2021/11/06 09:43:18;;;;;;;0.10;0.10;;;;;;;;;;5025355;28;20267;-79
2021/11/06 09:45:45;;;;;;;0.85;0.55;;;;;;;;;;5025061;28;20449;-79
2021/11/06 09:48:11;;;;;;;0.10;0.10;;;;;;;;;;5026260;28;20039;-79
2021/11/06 09:50:38;;;;;;;0.10;0.10;;;;;;;;;;5027366;28;20508;-79
2021/11/06 09:53:04;;;;;;;0.70;0.70;;;;;;;;;;5039176;28;20112;-79
2021/11/06 09:55:32;;;;;;;0.20;0.20;;;;;;;;;;5040262;28;20663;-79
2021/11/06 09:57:58;;;;;;;0.52;0.38;;;;;;;;;;5025336;28;20029;-80
2021/11/06 10:00:24;;;;;;;0.13;0.13;;;;;;;;;;5025841;28;20041;-78
2021/11/06 10:02:54;;;;;;;0.10;0.10;;;;;;;;;;5027634;28;20029;-79
2021/11/06 10:05:40;;;;;;;0.63;0.63;;;;;;;;;;5025688;28;20067;-79
2021/11/06 10:08:28;;;;;;;0.15;0.15;;;;;;;;;;5025277;28;20025;-79
2021/11/06 10:10:54;;;;;;;0.10;0.10;;;;;;;;;;5023613;28;20111;-79
2021/11/06 10:13:21;;;;;;;0.10;0.10;;;;;;;;;;5026341;28;20554;-81
2021/11/06 10:15:49;;;;;;;0.20;0.20;;;;;;;;;;5043398;28;20044;-80
2021/11/06 10:18:16;;;;;;;0.40;0.40;;;;;;;;;;5041324;28;20041;-80
2021/11/06 10:20:44;;;;;;;0.80;0.45;;;;;;;;;;5041389;28;20150;-80
2021/11/06 10:23:11;;;;;;;0.30;0.30;;;;;;;;;;5041993;28;20455;-80
2021/11/06 10:25:37;;;;;;;0.47;0.47;;;;;;;;;;5040136;28;20060;-80
2021/11/06 10:28:12;;;;;;;0.10;0.10;;;;;;;;;;5044438;28;20036;-80
2021/11/06 10:30:43;;;;;;;0.40;0.30;;;;;;;;;;5041043;28;20028;-80
2021/11/06 10:33:13;;;;;;;0.10;0.10;;;;;;;;;;5041869;28;20104;-80
2021/11/06 10:35:41;;;;;;;0.20;0.20;;;;;;;;;;5041165;28;20060;-80
2021/11/06 10:38:14;;;;;;;0.30;0.30;;;;;;;;;;5041695;28;20075;-80
2021/11/06 10:40:40;;;;;;;0.20;0.20;;;;;;;;;;5039580;28;20030;-80
2021/11/06 10:43:07;;;;;;;0.20;0.20;;;;;;;;;;5041346;28;20050;-80
2021/11/06 10:45:33;;;;;;;;;;;;;;;;;;5047130;28;20041;-79
2021/11/06 10:48:01;;;;;;;0.63;0.40;;;;;;;;;;5027567;28;19917;-79
2021/11/06 10:50:36;;;;;;;0.90;0.25;;;;;;;;;;5040955;28;20034;-80
2021/11/06 10:53:03;;;;;;;1.55;0.82;;;;;;;;;;5043700;28;20071;-80
2021/11/06 10:55:33;;;;;;;0.20;0.20;;;;;;;;;;5043346;28;20041;-78
2021/11/06 10:57:59;;;;;;;0.10;0.10;;;;;;;;;;5027043;28;20056;-79
2021/11/06 11:00:25;;;;;;;0.10;0.10;;;;;;;;;;5049233;28;20455;-79
2021/11/06 11:02:51;;;;;;;0.10;0.10;;;;;;;;;;5039653;28;20021;-81
2021/11/06 11:05:35;;;;;;;0.10;0.10;;;;;;;;;;5039056;28;20063;-81
2021/11/06 11:08:06;;;;;;;1.80;0.65;;;;;;;;;;5040887;28;20037;-82
2021/11/06 11:10:32;;;;;;;1.10;0.30;;;;;;;;;;5039209;28;20047;-81
2021/11/06 11:13:08;;;;;;;0.30;0.25;;;;;;;;;;5040377;28;20060;-83
2021/11/06 11:15:35;;;;;;;0.38;0.38;;;;;;;;;;5038018;28;20193;-80
2021/11/06 11:18:01;;;;;;;0.45;0.45;;;;;;;;;;5040160;28;20037;-82
2021/11/06 11:20:28;;;;;;;0.20;0.20;;;;;;;;;;5029126;28;20560;-81
2021/11/06 11:23:22;;;;;;;0.10;0.10;;;;;;;;;;5038127;28;20915;-81
2021/11/06 11:25:48;;;;;;;0.20;0.20;;;;;;;;;;5046709;28;20428;-81
2021/11/06 11:28:14;;;;;;;0.43;0.43;;;;;;;;;;5040244;28;20056;-82
2021/11/06 11:30:41;;;;;;;0.10;0.10;;;;;;;;;;5039181;28;20033;-82
2021/11/06 11:33:08;;;;;;;0.10;0.10;;;;;;;;;;5037109;28;20500;-81
2021/11/06 11:35:36;;;;;;;0.10;0.10;;;;;;;;;;5036938;28;20047;-81
2021/11/06 11:38:02;;;;;;;0.20;0.20;;;;;;;;;;5038557;28;20036;-82
2021/11/06 11:40:29;;;;;;;0.30;0.30;;;;;;;;;;5038366;28;20029;-81
2021/11/06 11:43:11;;;;;;;0.10;0.10;;;;;;;;;;5053407;28;20107;-81
2021/11/06 11:45:46;;;;;;;0.45;0.40;;;;;;;;;;5038545;28;20021;-82
2021/11/06 11:48:14;;;;;;;0.20;0.20;;;;;;;;;;5032257;28;20025;-82
2021/11/06 11:50:41;;;;;;;0.20;0.20;;;;;;;;;;5040495;28;20033;-81
2021/11/06 11:53:09;;;;;;;0.40;0.40;;;;;;;;;;5033424;28;20021;-81
2021/11/06 11:55:46;;;;;;;0.03;0.03;;;;;;;;;;5038192;28;20044;-82
2021/11/06 11:58:16;;;;;;;0.10;0.10;;;;;;;;;;5054518;28;20071;-81
2021/11/06 12:00:43;;;;;;;0.30;0.28;;;;;;;;;;5037570;28;20131;-81
2021/11/06 12:03:10;;;;;;;0.52;0.52;;;;;;;;;;5035463;28;20079;-82
2021/11/06 12:05:37;;;;;;;0.10;0.10;;;;;;;;;;5035070;28;20103;-81
2021/11/06 12:08:26;;;;;;;0.10;0.10;;;;;;;;;;5056595;28;20502;-81
2021/11/06 12:10:58;;;;;;;0.10;0.10;;;;;;;;;;5047996;28;20858;-81
2021/11/06 12:13:34;;;;;;;0.10;0.10;;;;;;;;;;5058862;28;20038;-82
2021/11/06 12:16:00;;;;;;;0.10;0.10;;;;;;;;;;5063589;28;20033;-82
2021/11/06 12:18:36;;;;;;;0.10;0.10;;;;;;;;;;5061149;28;20473;-81
2021/11/06 12:21:15;;;;;;;0.10;0.10;;;;;;;;;;5062523;28;20499;-82
2021/11/06 12:24:05;;;;;;;0.13;0.13;;;;;;;;;;5044889;28;20036;-82
2021/11/06 12:26:32;;;;;;;0.20;0.20;;;;;;;;;;5037510;28;20040;-82
2021/11/06 12:29:04;;;;;;;0.10;0.10;;;;;;;;;;5061368;28;20036;-82
2021/11/06 12:31:30;;;;;;;0.10;0.10;;;;;;;;;;5063117;28;20100;-82
2021/11/06 12:33:57;;;;;;;0.10;0.10;;;;;;;;;;5063752;28;20097;-82
2021/11/06 12:36:23;;;;;;;;;;;;;;;;;;5059111;28;20032;-81
2021/11/06 12:38:50;;;;;;;0.10;0.10;;;;;;;;;;5057266;28;19921;-83
2021/11/06 12:41:26;;;;;;;0.00;0.00;;;;;;;;;;5057452;28;20029;-83
2021/11/06 12:43:52;;;;;;;0.10;0.10;;;;;;;;;;5038742;28;20025;-83
2021/11/06 12:46:26;;;;;;;0.20;0.20;;;;;;;;;;5058495;28;20343;-83
2021/11/06 12:48:54;;;;;;;0.05;0.05;;;;;;;;;;5059230;28;20115;-82
2021/11/06 12:51:21;;;;;;;7.13;2.10;;;;;;;;;;5042524;28;20044;-84
2021/11/06 12:53:51;;;;;;;0.10;0.10;;;;;;;;;;5040431;28;20450;-82
2021/11/06 12:56:22;;;;;;;0.13;0.13;;;;;;;;;;5053770;28;20036;-83
2021/11/06 12:59:01;;;;;;;0.10;0.10;;;;;;;;;;5054645;28;20044;-83
2021/11/06 13:01:28;;;;;;;0.10;0.10;;;;;;;;;;5036500;28;20028;-83
2021/11/06 13:03:55;;;;;;;0.20;0.20;;;;;;;;;;5050619;28;20033;-85
2021/11/06 13:06:21;;;;;;;0.10;0.10;;;;;;;;;;5041696;28;20049;-86
2021/11/06 13:09:20;;;;;;;0.10;0.10;;;;;;;;;;5034899;28;20028;-87
2021/11/06 13:11:48;;;;;;;0.10;0.10;;;;;;;;;;5006884;28;20497;-86
2021/11/06 13:14:33;;;;;;;0.10;0.10;;;;;;;;;;5007860;28;20041;-86
2021/11/06 13:17:17;;;;;;;0.10;0.10;;;;;;;;;;5002562;28;20030;-89
2021/11/06 13:19:44;;;;;;;0.10;0.10;;;;;;;;;;5005837;28;20107;-87
2021/11/06 13:22:11;;;;;;;0.10;0.10;;;;;;;;;;5006628;28;20069;-87
2021/11/06 13:24:49;;;;;;;0.10;0.10;;;;;;;;;;5018583;28;20219;-86
2021/11/06 13:27:34;;;;;;;0.10;0.10;;;;;;;;;;4992620;28;20076;-85
2021/11/06 13:30:18;;;;;;;0.17;0.15;;;;;;;;;;5003035;28;20562;-85
2021/11/06 13:33:11;;;;;;;0.57;0.57;;;;;;;;;;5012516;28;20631;-86
2021/11/06 13:35:38;;;;;;;0.10;0.10;;;;;;;;;;5009872;28;20060;-86
2021/11/06 13:38:22;;;;;;;0.30;0.30;;;;;;;;;;5000065;28;20446;-87
2021/11/06 13:40:50;;;;;;;0.10;0.10;;;;;;;;;;5001295;28;20037;-82
2021/11/06 13:43:21;;;;;;;0.10;0.10;;;;;;;;;;5014932;28;20041;-86
2021/11/06 13:46:05;;;;;;;0.10;0.10;;;;;;;;;;4993678;28;20033;-83
2021/11/06 13:48:34;;;;;;;0.20;0.20;;;;;;;;;;5042058;28;20167;-83
2021/11/06 13:51:11;;;;;;;0.00;0.00;;;;;;;;;;5040262;28;20037;-83
2021/11/06 13:53:37;;;;;;;0.10;0.10;;;;;;;;;;5048985;28;20121;-84
2021/11/06 13:56:03;;;;;;;0.50;0.40;;;;;;;;;;5054374;28;20032;-83
2021/11/06 13:58:29;;;;;;;0.30;0.20;;;;;;;;;;5052023;28;20037;-83
2021/11/06 14:00:55;;;;;;;0.10;0.10;;;;;;;;;;5030431;28;20036;-83
2021/11/06 14:03:22;;;;;;;0.10;0.10;;;;;;;;;;5054424;28;20032;-83
2021/11/06 14:05:49;;;;;;;0.13;0.13;;;;;;;;;;5043700;28;20665;-83
2021/11/06 14:08:16;;;;;;;0.13;0.13;;;;;;;;;;5045055;28;20079;-83
2021/11/06 14:10:42;;;;;;;0.05;0.05;;;;;;;;;;5059664;28;20028;-83
2021/11/06 14:13:14;;;;;;;0.10;0.10;;;;;;;;;;5043213;28;20785;-82
2021/11/06 14:15:43;;;;;;;1.02;0.40;;;;;;;;;;5041677;28;20047;-83
2021/11/06 14:18:12;;;;;;;0.10;0.10;;;;;;;;;;5041773;28;20075;-83
2021/11/06 14:20:40;;;;;;;0.10;0.10;;;;;;;;;;5061110;28;20131;-83
2021/11/06 14:23:08;;;;;;;0.10;0.10;;;;;;;;;;5060033;28;20142;-83
2021/11/06 14:25:36;;;;;;;0.10;0.10;;;;;;;;;;5041488;28;20047;-83
2021/11/06 14:28:08;;;;;;;0.15;0.15;;;;;;;;;;5042687;28;20835;-83
2021/11/06 14:30:45;;;;;;;0.10;0.10;;;;;;;;;;5059590;28;20032;-83
2021/11/06 14:33:11;;;;;;;0.10;0.10;;;;;;;;;;5062086;28;20384;-84
2021/11/06 14:35:38;;;;;;;0.10;0.10;;;;;;;;;;5061914;28;20028;-83
2021/11/06 14:38:04;;;;;;;;;;;;;;;;;;5045633;28;20108;-83
2021/11/06 14:40:30;;;;;;;0.00;0.00;;;;;;;;;;5040859;28;19923;-83
2021/11/06 14:43:07;;;;;;;0.20;0.20;;;;;;;;;;5036127;28;20073;-83
2021/11/06 14:45:33;;;;;;;0.10;0.10;;;;;;;;;;5039881;28;20127;-82
2021/11/06 14:48:04;;;;;;;0.40;0.20;;;;;;;;;;5042374;28;20039;-84